sensor_id;sensor_type;location;lat;lon;timestamp;temperature;humidity
21580;DHT22;10951;59.656;9.666;2024-03-02T00:01:36;3.50;99.90
21580;DHT22;10951;59.656;9.666;2024-03-02T00:04:05;3.50;99.90
21580;DHT22;10951;59.656;9.666;2024-03-02T00:06:34;3.50;99.90
21580;DHT22;10951;59.656;9.666;2024-03-02T00:09:01;3.50;99.90
21580;DHT22;10951;59.656;9.666;2024-03-02T00:11:29;3.60;99.90
21580;DHT22;10951;59.656;9.666;2024-03-02T00:13:56;3.60;99.90
21580;DHT22;10951;59.656;9.666;2024-03-02T00:16:24;3.60;99.90
21580;DHT22;10951;59.656;9.666;2024-03-02T00:18:56;3.50;99.90
21580;DHT22;10951;59.656;9.666;2024-03-02T00:21:27;3.50;99.90
21580;DHT22;10951;59.656;9.666;2024-03-02T00:23:54;3.50;99.90
21580;DHT22;10951;59.656;9.666;2024-03-02T00:26:21;3.40;99.90
21580;DHT22;10951;59.656;9.666;2024-03-02T00:28:48;3.40;99.90
21580;DHT22;10951;59.656;9.666;2024-03-02T00:31:20;3.40;99.90
21580;DHT22;10951;59.656;9.666;2024-03-02T00:33:48;3.40;99.90
21580;DHT22;10951;59.656;9.666;2024-03-02T00:36:24;3.40;99.90
21580;DHT22;10951;59.656;9.666;2024-03-02T00:38:53;3.40;99.90
21580;DHT22;10951;59.656;9.666;2024-03-02T00:41:24;3.30;99.90
21580;DHT22;10951;59.656;9.666;2024-03-02T00:44:00;3.30;99.90
21580;DHT22;10951;59.656;9.666;2024-03-02T00:46:31;3.20;99.90
21580;DHT22;10951;59.656;9.666;2024-03-02T00:49:02;3.20;99.90
21580;DHT22;10951;59.656;9.666;2024-03-02T00:51:31;3.20;99.90
21580;DHT22;10951;59.656;9.666;2024-03-02T00:54:04;3.20;99.90
21580;DHT22;10951;59.656;9.666;2024-03-02T00:56:32;3.20;99.90
21580;DHT22;10951;59.656;9.666;2024-03-02T00:58:59;3.20;99.90
21580;DHT22;10951;59.656;9.666;2024-03-02T01:01:26;3.20;99.90
21580;DHT22;10951;59.656;9.666;2024-03-02T01:03:54;3.20;99.90
21580;DHT22;10951;59.656;9.666;2024-03-02T01:06:21;3.20;99.90
21580;DHT22;10951;59.656;9.666;2024-03-02T01:08:49;3.20;99.90
21580;DHT22;10951;59.656;9.666;2024-03-02T01:11:19;3.20;99.90
21580;DHT22;10951;59.656;9.666;2024-03-02T01:13:49;3.20;99.90
21580;DHT22;10951;59.656;9.666;2024-03-02T01:16:17;3.20;99.90
21580;DHT22;10951;59.656;9.666;2024-03-02T01:18:44;3.20;99.90
21580;DHT22;10951;59.656;9.666;2024-03-02T01:21:11;3.20;99.90
21580;DHT22;10951;59.656;9.666;2024-03-02T01:23:39;3.20;99.90
21580;DHT22;10951;59.656;9.666;2024-03-02T01:26:06;3.20;99.90
21580;DHT22;10951;59.656;9.666;2024-03-02T01:28:33;3.20;99.90
21580;DHT22;10951;59.656;9.666;2024-03-02T01:31:00;3.30;99.90
21580;DHT22;10951;59.656;9.666;2024-03-02T01:33:29;3.30;99.90
21580;DHT22;10951;59.656;9.666;2024-03-02T01:35:56;3.30;99.90
21580;DHT22;10951;59.656;9.666;2024-03-02T01:38:23;3.30;99.90
21580;DHT22;10951;59.656;9.666;2024-03-02T01:40:50;3.30;99.90
21580;DHT22;10951;59.656;9.666;2024-03-02T01:43:17;3.20;99.90
21580;DHT22;10951;59.656;9.666;2024-03-02T01:45:44;3.30;99.90
21580;DHT22;10951;59.656;9.666;2024-03-02T01:48:11;3.40;99.90
21580;DHT22;10951;59.656;9.666;2024-03-02T01:50:38;3.30;99.90
21580;DHT22;10951;59.656;9.666;2024-03-02T01:53:05;3.30;99.90
21580;DHT22;10951;59.656;9.666;2024-03-02T01:55:33;3.30;99.90
21580;DHT22;10951;59.656;9.666;2024-03-02T01:58:01;3.30;99.90
21580;DHT22;10951;59.656;9.666;2024-03-02T02:00:28;3.30;99.90
21580;DHT22;10951;59.656;9.666;2024-03-02T02:02:56;3.40;99.90
21580;DHT22;10951;59.656;9.666;2024-03-02T02:05:24;3.30;99.90
21580;DHT22;10951;59.656;9.666;2024-03-02T02:07:52;3.30;99.90
21580;DHT22;10951;59.656;9.666;2024-03-02T02:10:19;3.20;99.90
21580;DHT22;10951;59.656;9.666;2024-03-02T02:12:46;3.20;99.90
21580;DHT22;10951;59.656;9.666;2024-03-02T02:15:29;3.20;99.90
21580;DHT22;10951;59.656;9.666;2024-03-02T02:17:58;3.20;99.90
21580;DHT22;10951;59.656;9.666;2024-03-02T02:20:25;3.20;99.90
21580;DHT22;10951;59.656;9.666;2024-03-02T02:22:59;3.20;99.90
21580;DHT22;10951;59.656;9.666;2024-03-02T02:25:28;3.20;99.90
21580;DHT22;10951;59.656;9.666;2024-03-02T02:27:56;3.20;99.90
21580;DHT22;10951;59.656;9.666;2024-03-02T02:30:30;3.10;99.90
21580;DHT22;10951;59.656;9.666;2024-03-02T02:32:58;3.10;99.90
21580;DHT22;10951;59.656;9.666;2024-03-02T02:35:25;3.10;99.90
21580;DHT22;10951;59.656;9.666;2024-03-02T02:37:54;3.10;99.90
21580;DHT22;10951;59.656;9.666;2024-03-02T02:40:22;3.10;99.90
21580;DHT22;10951;59.656;9.666;2024-03-02T02:42:50;3.00;99.90
21580;DHT22;10951;59.656;9.666;2024-03-02T02:45:19;3.00;99.90
21580;DHT22;10951;59.656;9.666;2024-03-02T02:47:46;3.00;99.90
21580;DHT22;10951;59.656;9.666;2024-03-02T02:50:14;3.10;99.90
21580;DHT22;10951;59.656;9.666;2024-03-02T02:52:42;3.00;99.90
21580;DHT22;10951;59.656;9.666;2024-03-02T02:55:10;3.00;99.90
21580;DHT22;10951;59.656;9.666;2024-03-02T02:57:39;3.00;99.90
21580;DHT22;10951;59.656;9.666;2024-03-02T03:00:08;3.00;99.90
21580;DHT22;10951;59.656;9.666;2024-03-02T03:02:45;3.00;99.90
21580;DHT22;10951;59.656;9.666;2024-03-02T03:05:13;3.10;99.90
21580;DHT22;10951;59.656;9.666;2024-03-02T03:07:41;3.10;99.90
21580;DHT22;10951;59.656;9.666;2024-03-02T03:10:09;3.10;99.90
21580;DHT22;10951;59.656;9.666;2024-03-02T03:12:36;3.00;99.90
21580;DHT22;10951;59.656;9.666;2024-03-02T03:15:04;3.10;99.90
21580;DHT22;10951;59.656;9.666;2024-03-02T03:17:31;3.10;99.90
21580;DHT22;10951;59.656;9.666;2024-03-02T03:19:58;3.10;99.90
21580;DHT22;10951;59.656;9.666;2024-03-02T03:22:26;3.10;99.90
21580;DHT22;10951;59.656;9.666;2024-03-02T03:24:53;3.00;99.90
21580;DHT22;10951;59.656;9.666;2024-03-02T03:27:20;3.00;99.90
21580;DHT22;10951;59.656;9.666;2024-03-02T03:29:47;3.00;99.90
21580;DHT22;10951;59.656;9.666;2024-03-02T03:32:14;3.00;99.90
21580;DHT22;10951;59.656;9.666;2024-03-02T03:34:41;3.00;99.90
21580;DHT22;10951;59.656;9.666;2024-03-02T03:37:08;3.00;99.90
21580;DHT22;10951;59.656;9.666;2024-03-02T03:39:36;3.10;99.90
21580;DHT22;10951;59.656;9.666;2024-03-02T03:42:03;3.10;99.90
21580;DHT22;10951;59.656;9.666;2024-03-02T03:44:30;3.00;99.90
21580;DHT22;10951;59.656;9.666;2024-03-02T03:46:57;3.00;99.90
21580;DHT22;10951;59.656;9.666;2024-03-02T03:49:25;3.00;99.90
21580;DHT22;10951;59.656;9.666;2024-03-02T03:51:52;3.00;99.90
21580;DHT22;10951;59.656;9.666;2024-03-02T03:54:19;2.90;99.90
21580;DHT22;10951;59.656;9.666;2024-03-02T03:56:46;2.90;99.90
21580;DHT22;10951;59.656;9.666;2024-03-02T03:59:13;3.00;99.90
21580;DHT22;10951;59.656;9.666;2024-03-02T04:01:40;3.00;99.90
21580;DHT22;10951;59.656;9.666;2024-03-02T04:04:07;3.00;99.90
21580;DHT22;10951;59.656;9.666;2024-03-02T04:06:34;3.00;99.90
21580;DHT22;10951;59.656;9.666;2024-03-02T04:09:01;2.90;99.90
21580;DHT22;10951;59.656;9.666;2024-03-02T04:11:28;3.00;99.90
21580;DHT22;10951;59.656;9.666;2024-03-02T04:13:55;3.00;99.90
21580;DHT22;10951;59.656;9.666;2024-03-02T04:16:24;3.00;99.90
21580;DHT22;10951;59.656;9.666;2024-03-02T04:18:52;3.00;99.90
21580;DHT22;10951;59.656;9.666;2024-03-02T04:21:19;3.00;99.90
21580;DHT22;10951;59.656;9.666;2024-03-02T04:23:48;3.00;99.90
21580;DHT22;10951;59.656;9.666;2024-03-02T04:26:15;3.00;99.90
21580;DHT22;10951;59.656;9.666;2024-03-02T04:28:46;3.00;99.90
21580;DHT22;10951;59.656;9.666;2024-03-02T04:31:15;3.00;99.90
21580;DHT22;10951;59.656;9.666;2024-03-02T04:33:42;2.90;99.90
21580;DHT22;10951;59.656;9.666;2024-03-02T04:36:10;2.90;99.90
21580;DHT22;10951;59.656;9.666;2024-03-02T04:38:37;2.90;99.90
21580;DHT22;10951;59.656;9.666;2024-03-02T04:41:05;2.90;99.90
21580;DHT22;10951;59.656;9.666;2024-03-02T04:43:35;2.90;99.90
21580;DHT22;10951;59.656;9.666;2024-03-02T04:46:02;2.90;99.90
21580;DHT22;10951;59.656;9.666;2024-03-02T04:48:30;2.90;99.90
21580;DHT22;10951;59.656;9.666;2024-03-02T04:50:57;2.90;99.90
21580;DHT22;10951;59.656;9.666;2024-03-02T04:53:24;2.90;99.90
21580;DHT22;10951;59.656;9.666;2024-03-02T04:55:51;3.00;99.90
21580;DHT22;10951;59.656;9.666;2024-03-02T04:58:36;2.90;99.90
21580;DHT22;10951;59.656;9.666;2024-03-02T05:01:03;2.90;99.90
21580;DHT22;10951;59.656;9.666;2024-03-02T05:03:30;2.90;99.90
21580;DHT22;10951;59.656;9.666;2024-03-02T05:05:58;2.90;99.90
21580;DHT22;10951;59.656;9.666;2024-03-02T05:08:24;2.90;99.90
21580;DHT22;10951;59.656;9.666;2024-03-02T05:10:52;3.00;99.90
21580;DHT22;10951;59.656;9.666;2024-03-02T05:13:19;3.00;99.90
21580;DHT22;10951;59.656;9.666;2024-03-02T05:15:48;3.00;99.90
21580;DHT22;10951;59.656;9.666;2024-03-02T05:18:15;3.00;99.90
21580;DHT22;10951;59.656;9.666;2024-03-02T05:20:42;3.00;99.90
21580;DHT22;10951;59.656;9.666;2024-03-02T05:23:09;3.00;99.90
21580;DHT22;10951;59.656;9.666;2024-03-02T05:25:36;3.00;99.90
21580;DHT22;10951;59.656;9.666;2024-03-02T05:28:03;3.00;99.90
21580;DHT22;10951;59.656;9.666;2024-03-02T05:30:30;2.90;99.90
21580;DHT22;10951;59.656;9.666;2024-03-02T05:32:57;2.90;99.90
21580;DHT22;10951;59.656;9.666;2024-03-02T05:35:25;2.90;99.90
21580;DHT22;10951;59.656;9.666;2024-03-02T05:37:52;2.90;99.90
21580;DHT22;10951;59.656;9.666;2024-03-02T05:40:19;2.90;99.90
21580;DHT22;10951;59.656;9.666;2024-03-02T05:42:49;2.90;99.90
21580;DHT22;10951;59.656;9.666;2024-03-02T05:45:17;2.90;99.90
21580;DHT22;10951;59.656;9.666;2024-03-02T05:47:44;2.90;99.90
21580;DHT22;10951;59.656;9.666;2024-03-02T05:50:11;2.90;99.90
21580;DHT22;10951;59.656;9.666;2024-03-02T05:52:38;2.80;99.90
21580;DHT22;10951;59.656;9.666;2024-03-02T05:55:05;2.90;99.90
21580;DHT22;10951;59.656;9.666;2024-03-02T05:57:39;2.90;99.90
21580;DHT22;10951;59.656;9.666;2024-03-02T06:00:22;2.90;99.90
21580;DHT22;10951;59.656;9.666;2024-03-02T06:02:49;2.80;99.90
21580;DHT22;10951;59.656;9.666;2024-03-02T06:05:16;2.90;99.90
21580;DHT22;10951;59.656;9.666;2024-03-02T06:07:45;2.90;99.90
21580;DHT22;10951;59.656;9.666;2024-03-02T06:10:12;2.90;99.90
21580;DHT22;10951;59.656;9.666;2024-03-02T06:12:40;2.90;99.90
21580;DHT22;10951;59.656;9.666;2024-03-02T06:15:08;2.90;99.90
21580;DHT22;10951;59.656;9.666;2024-03-02T06:17:35;2.90;99.90
21580;DHT22;10951;59.656;9.666;2024-03-02T06:20:03;2.90;99.90
21580;DHT22;10951;59.656;9.666;2024-03-02T06:22:30;2.90;99.90
21580;DHT22;10951;59.656;9.666;2024-03-02T06:24:57;2.90;99.90
21580;DHT22;10951;59.656;9.666;2024-03-02T06:27:24;2.90;99.90
21580;DHT22;10951;59.656;9.666;2024-03-02T06:29:51;2.90;99.90
21580;DHT22;10951;59.656;9.666;2024-03-02T06:32:18;2.90;99.90
21580;DHT22;10951;59.656;9.666;2024-03-02T06:34:45;2.90;99.90
21580;DHT22;10951;59.656;9.666;2024-03-02T06:37:12;2.90;99.90
21580;DHT22;10951;59.656;9.666;2024-03-02T06:39:39;2.80;99.90
21580;DHT22;10951;59.656;9.666;2024-03-02T06:42:07;2.90;99.90
21580;DHT22;10951;59.656;9.666;2024-03-02T06:44:34;2.80;99.90
21580;DHT22;10951;59.656;9.666;2024-03-02T06:47:01;2.80;99.90
21580;DHT22;10951;59.656;9.666;2024-03-02T06:49:28;2.90;99.90
21580;DHT22;10951;59.656;9.666;2024-03-02T06:51:55;2.90;99.90
21580;DHT22;10951;59.656;9.666;2024-03-02T06:54:22;2.90;99.90
21580;DHT22;10951;59.656;9.666;2024-03-02T06:56:49;2.90;99.90
21580;DHT22;10951;59.656;9.666;2024-03-02T06:59:16;2.90;99.90
21580;DHT22;10951;59.656;9.666;2024-03-02T07:01:43;2.90;99.90
21580;DHT22;10951;59.656;9.666;2024-03-02T07:04:10;2.90;99.90
21580;DHT22;10951;59.656;9.666;2024-03-02T07:06:37;2.90;99.90
21580;DHT22;10951;59.656;9.666;2024-03-02T07:09:04;3.00;99.90
21580;DHT22;10951;59.656;9.666;2024-03-02T07:11:31;2.90;99.90
21580;DHT22;10951;59.656;9.666;2024-03-02T07:13:58;2.90;99.90
21580;DHT22;10951;59.656;9.666;2024-03-02T07:16:25;3.00;99.90
21580;DHT22;10951;59.656;9.666;2024-03-02T07:18:56;2.90;99.90
21580;DHT22;10951;59.656;9.666;2024-03-02T07:21:24;3.00;99.90
21580;DHT22;10951;59.656;9.666;2024-03-02T07:23:51;3.00;99.90
21580;DHT22;10951;59.656;9.666;2024-03-02T07:26:18;3.00;99.90
21580;DHT22;10951;59.656;9.666;2024-03-02T07:28:49;3.00;99.90
21580;DHT22;10951;59.656;9.666;2024-03-02T07:31:16;3.00;99.90
21580;DHT22;10951;59.656;9.666;2024-03-02T07:33:44;3.00;99.90
21580;DHT22;10951;59.656;9.666;2024-03-02T07:36:13;3.10;99.90
21580;DHT22;10951;59.656;9.666;2024-03-02T07:38:40;3.10;99.90
21580;DHT22;10951;59.656;9.666;2024-03-02T07:41:08;3.20;99.90
21580;DHT22;10951;59.656;9.666;2024-03-02T07:43:35;3.20;99.90
21580;DHT22;10951;59.656;9.666;2024-03-02T07:46:02;3.20;99.90
21580;DHT22;10951;59.656;9.666;2024-03-02T07:48:30;3.30;99.90
21580;DHT22;10951;59.656;9.666;2024-03-02T07:50:57;3.30;99.90
21580;DHT22;10951;59.656;9.666;2024-03-02T07:53:25;3.40;99.90
21580;DHT22;10951;59.656;9.666;2024-03-02T07:55:52;3.40;99.90
21580;DHT22;10951;59.656;9.666;2024-03-02T07:58:19;3.40;99.90
21580;DHT22;10951;59.656;9.666;2024-03-02T08:00:46;3.40;99.90
21580;DHT22;10951;59.656;9.666;2024-03-02T08:03:14;3.40;99.90
21580;DHT22;10951;59.656;9.666;2024-03-02T08:05:41;3.50;99.90
21580;DHT22;10951;59.656;9.666;2024-03-02T08:08:08;3.50;99.90
21580;DHT22;10951;59.656;9.666;2024-03-02T08:10:35;3.60;99.90
21580;DHT22;10951;59.656;9.666;2024-03-02T08:13:02;3.60;99.90
21580;DHT22;10951;59.656;9.666;2024-03-02T08:15:29;3.60;99.90
21580;DHT22;10951;59.656;9.666;2024-03-02T08:17:57;3.70;99.90
21580;DHT22;10951;59.656;9.666;2024-03-02T08:20:24;3.70;99.90
21580;DHT22;10951;59.656;9.666;2024-03-02T08:22:51;3.70;99.90
21580;DHT22;10951;59.656;9.666;2024-03-02T08:25:21;3.70;99.90
21580;DHT22;10951;59.656;9.666;2024-03-02T08:27:49;3.70;99.90
21580;DHT22;10951;59.656;9.666;2024-03-02T08:30:16;3.70;99.90
21580;DHT22;10951;59.656;9.666;2024-03-02T08:32:45;3.60;99.90
21580;DHT22;10951;59.656;9.666;2024-03-02T08:35:14;3.60;99.90
21580;DHT22;10951;59.656;9.666;2024-03-02T08:37:42;3.60;99.90
21580;DHT22;10951;59.656;9.666;2024-03-02T08:40:10;3.60;99.90
21580;DHT22;10951;59.656;9.666;2024-03-02T08:42:42;3.50;99.90
21580;DHT22;10951;59.656;9.666;2024-03-02T08:45:09;3.50;99.90
21580;DHT22;10951;59.656;9.666;2024-03-02T08:47:36;3.50;99.90
21580;DHT22;10951;59.656;9.666;2024-03-02T08:50:03;3.50;99.90
21580;DHT22;10951;59.656;9.666;2024-03-02T08:52:31;3.50;99.90
21580;DHT22;10951;59.656;9.666;2024-03-02T08:54:58;3.60;99.90
21580;DHT22;10951;59.656;9.666;2024-03-02T08:57:26;3.70;99.90
21580;DHT22;10951;59.656;9.666;2024-03-02T08:59:53;3.70;99.90
21580;DHT22;10951;59.656;9.666;2024-03-02T09:02:20;3.80;99.90
21580;DHT22;10951;59.656;9.666;2024-03-02T09:04:47;3.80;99.90
21580;DHT22;10951;59.656;9.666;2024-03-02T09:07:14;3.80;99.90
21580;DHT22;10951;59.656;9.666;2024-03-02T09:09:41;3.80;99.90
21580;DHT22;10951;59.656;9.666;2024-03-02T09:12:08;3.80;99.90
21580;DHT22;10951;59.656;9.666;2024-03-02T09:14:36;3.80;99.90
21580;DHT22;10951;59.656;9.666;2024-03-02T09:17:03;3.80;99.90
21580;DHT22;10951;59.656;9.666;2024-03-02T09:19:30;3.80;99.90
21580;DHT22;10951;59.656;9.666;2024-03-02T09:21:57;3.80;99.90
21580;DHT22;10951;59.656;9.666;2024-03-02T09:24:25;3.80;99.90
21580;DHT22;10951;59.656;9.666;2024-03-02T09:26:52;3.90;99.90
21580;DHT22;10951;59.656;9.666;2024-03-02T09:29:19;3.90;99.90
21580;DHT22;10951;59.656;9.666;2024-03-02T09:31:47;3.90;99.90
21580;DHT22;10951;59.656;9.666;2024-03-02T09:34:17;3.90;99.90
21580;DHT22;10951;59.656;9.666;2024-03-02T09:36:44;4.00;99.90
21580;DHT22;10951;59.656;9.666;2024-03-02T09:39:11;3.90;99.90
21580;DHT22;10951;59.656;9.666;2024-03-02T09:41:38;4.00;99.90
21580;DHT22;10951;59.656;9.666;2024-03-02T09:44:05;4.00;99.90
21580;DHT22;10951;59.656;9.666;2024-03-02T09:46:33;4.00;99.90
21580;DHT22;10951;59.656;9.666;2024-03-02T09:49:00;4.00;99.90
21580;DHT22;10951;59.656;9.666;2024-03-02T09:51:28;4.00;99.90
21580;DHT22;10951;59.656;9.666;2024-03-02T09:53:55;4.10;99.90
21580;DHT22;10951;59.656;9.666;2024-03-02T09:56:39;4.00;99.90
21580;DHT22;10951;59.656;9.666;2024-03-02T09:59:06;4.00;99.90
21580;DHT22;10951;59.656;9.666;2024-03-02T10:01:33;4.00;99.90
21580;DHT22;10951;59.656;9.666;2024-03-02T10:04:01;4.00;99.90
21580;DHT22;10951;59.656;9.666;2024-03-02T10:06:29;4.00;99.90
21580;DHT22;10951;59.656;9.666;2024-03-02T10:08:56;4.00;99.90
21580;DHT22;10951;59.656;9.666;2024-03-02T10:11:31;4.10;99.90
21580;DHT22;10951;59.656;9.666;2024-03-02T10:14:13;4.10;99.90
21580;DHT22;10951;59.656;9.666;2024-03-02T10:16:43;4.10;99.90
21580;DHT22;10951;59.656;9.666;2024-03-02T10:19:19;4.10;99.90
21580;DHT22;10951;59.656;9.666;2024-03-02T10:21:51;4.20;99.90
21580;DHT22;10951;59.656;9.666;2024-03-02T10:24:19;4.20;99.90
21580;DHT22;10951;59.656;9.666;2024-03-02T10:26:46;4.20;99.90
21580;DHT22;10951;59.656;9.666;2024-03-02T10:29:13;4.20;99.90
21580;DHT22;10951;59.656;9.666;2024-03-02T10:31:42;4.30;99.90
21580;DHT22;10951;59.656;9.666;2024-03-02T10:34:10;4.30;99.90
21580;DHT22;10951;59.656;9.666;2024-03-02T10:36:41;4.30;99.90
21580;DHT22;10951;59.656;9.666;2024-03-02T10:39:09;4.30;99.90
21580;DHT22;10951;59.656;9.666;2024-03-02T10:41:37;4.30;99.90
21580;DHT22;10951;59.656;9.666;2024-03-02T10:44:09;4.30;99.90
21580;DHT22;10951;59.656;9.666;2024-03-02T10:46:37;4.30;99.90
21580;DHT22;10951;59.656;9.666;2024-03-02T10:49:05;4.30;99.90
21580;DHT22;10951;59.656;9.666;2024-03-02T10:51:35;4.30;99.90
21580;DHT22;10951;59.656;9.666;2024-03-02T10:54:04;4.30;99.90
21580;DHT22;10951;59.656;9.666;2024-03-02T10:56:38;4.30;99.90
21580;DHT22;10951;59.656;9.666;2024-03-02T10:59:17;4.30;99.90
21580;DHT22;10951;59.656;9.666;2024-03-02T11:01:48;4.30;99.90
21580;DHT22;10951;59.656;9.666;2024-03-02T11:04:18;4.30;99.90
21580;DHT22;10951;59.656;9.666;2024-03-02T11:06:49;4.30;99.90
21580;DHT22;10951;59.656;9.666;2024-03-02T11:09:20;4.30;99.90
21580;DHT22;10951;59.656;9.666;2024-03-02T11:14:42;4.30;99.90
21580;DHT22;10951;59.656;9.666;2024-03-02T11:17:14;4.30;99.90
21580;DHT22;10951;59.656;9.666;2024-03-02T11:19:46;4.20;99.90
21580;DHT22;10951;59.656;9.666;2024-03-02T11:22:15;4.10;99.90
21580;DHT22;10951;59.656;9.666;2024-03-02T11:24:52;4.10;99.90
21580;DHT22;10951;59.656;9.666;2024-03-02T11:33:06;4.10;99.90
21580;DHT22;10951;59.656;9.666;2024-03-02T11:35:43;4.00;99.90
21580;DHT22;10951;59.656;9.666;2024-03-02T11:38:12;4.10;99.90
21580;DHT22;10951;59.656;9.666;2024-03-02T11:40:40;4.00;99.90
21580;DHT22;10951;59.656;9.666;2024-03-02T11:43:07;4.00;99.90
21580;DHT22;10951;59.656;9.666;2024-03-02T11:45:38;4.00;99.90
21580;DHT22;10951;59.656;9.666;2024-03-02T11:48:09;4.00;99.90
21580;DHT22;10951;59.656;9.666;2024-03-02T11:50:42;4.00;99.90
21580;DHT22;10951;59.656;9.666;2024-03-02T11:53:11;4.00;99.90
21580;DHT22;10951;59.656;9.666;2024-03-02T11:55:40;3.90;99.90
21580;DHT22;10951;59.656;9.666;2024-03-02T11:58:08;4.00;99.90
21580;DHT22;10951;59.656;9.666;2024-03-02T12:00:35;3.90;99.90
21580;DHT22;10951;59.656;9.666;2024-03-02T12:03:09;4.00;99.90
21580;DHT22;10951;59.656;9.666;2024-03-02T12:05:36;3.90;99.90
21580;DHT22;10951;59.656;9.666;2024-03-02T12:08:06;4.00;99.90
21580;DHT22;10951;59.656;9.666;2024-03-02T12:10:34;4.00;99.90
21580;DHT22;10951;59.656;9.666;2024-03-02T12:13:05;4.00;99.90
21580;DHT22;10951;59.656;9.666;2024-03-02T12:15:39;4.10;99.90
21580;DHT22;10951;59.656;9.666;2024-03-02T12:18:07;4.10;99.90
21580;DHT22;10951;59.656;9.666;2024-03-02T12:20:34;4.20;99.90
21580;DHT22;10951;59.656;9.666;2024-03-02T12:23:02;4.10;99.90
21580;DHT22;10951;59.656;9.666;2024-03-02T12:25:31;4.10;99.90
21580;DHT22;10951;59.656;9.666;2024-03-02T12:28:00;4.10;99.90
21580;DHT22;10951;59.656;9.666;2024-03-02T12:30:30;4.10;99.90
21580;DHT22;10951;59.656;9.666;2024-03-02T12:32:58;4.10;99.90
21580;DHT22;10951;59.656;9.666;2024-03-02T12:35:26;4.10;99.90
21580;DHT22;10951;59.656;9.666;2024-03-02T12:37:54;4.20;99.90
21580;DHT22;10951;59.656;9.666;2024-03-02T12:40:22;4.20;99.90
21580;DHT22;10951;59.656;9.666;2024-03-02T12:42:50;4.20;99.90
21580;DHT22;10951;59.656;9.666;2024-03-02T12:45:18;4.20;99.90
21580;DHT22;10951;59.656;9.666;2024-03-02T12:47:52;4.20;99.90
21580;DHT22;10951;59.656;9.666;2024-03-02T12:50:21;4.30;99.90
21580;DHT22;10951;59.656;9.666;2024-03-02T12:52:54;4.30;99.90
21580;DHT22;10951;59.656;9.666;2024-03-02T12:55:23;4.20;99.90
21580;DHT22;10951;59.656;9.666;2024-03-02T12:57:51;4.20;99.90
21580;DHT22;10951;59.656;9.666;2024-03-02T13:00:20;4.20;99.90
21580;DHT22;10951;59.656;9.666;2024-03-02T13:02:47;4.20;99.90
21580;DHT22;10951;59.656;9.666;2024-03-02T13:05:15;4.20;99.90
21580;DHT22;10951;59.656;9.666;2024-03-02T13:07:42;4.20;99.90
21580;DHT22;10951;59.656;9.666;2024-03-02T13:10:12;4.20;99.90
21580;DHT22;10951;59.656;9.666;2024-03-02T13:12:39;4.20;99.90
21580;DHT22;10951;59.656;9.666;2024-03-02T13:15:08;4.20;99.90
21580;DHT22;10951;59.656;9.666;2024-03-02T13:17:39;4.20;99.90
21580;DHT22;10951;59.656;9.666;2024-03-02T13:20:06;4.10;99.90
21580;DHT22;10951;59.656;9.666;2024-03-02T13:22:38;4.10;99.90
21580;DHT22;10951;59.656;9.666;2024-03-02T13:25:05;4.10;99.90
21580;DHT22;10951;59.656;9.666;2024-03-02T13:27:33;4.10;99.90
21580;DHT22;10951;59.656;9.666;2024-03-02T13:30:04;4.10;99.90
21580;DHT22;10951;59.656;9.666;2024-03-02T13:32:32;4.10;99.90
21580;DHT22;10951;59.656;9.666;2024-03-02T13:35:00;4.10;99.90
21580;DHT22;10951;59.656;9.666;2024-03-02T13:37:27;4.10;99.90
21580;DHT22;10951;59.656;9.666;2024-03-02T13:39:54;4.10;99.90
21580;DHT22;10951;59.656;9.666;2024-03-02T13:42:21;4.10;99.90
21580;DHT22;10951;59.656;9.666;2024-03-02T13:44:48;4.10;99.90
21580;DHT22;10951;59.656;9.666;2024-03-02T13:47:17;4.20;99.90
21580;DHT22;10951;59.656;9.666;2024-03-02T13:49:45;4.20;99.90
21580;DHT22;10951;59.656;9.666;2024-03-02T13:52:13;4.20;99.90
21580;DHT22;10951;59.656;9.666;2024-03-02T13:54:41;4.30;99.90
21580;DHT22;10951;59.656;9.666;2024-03-02T13:57:09;4.20;99.90
21580;DHT22;10951;59.656;9.666;2024-03-02T13:59:37;4.10;99.90
21580;DHT22;10951;59.656;9.666;2024-03-02T14:02:06;4.10;99.90
21580;DHT22;10951;59.656;9.666;2024-03-02T14:04:33;4.10;99.90
21580;DHT22;10951;59.656;9.666;2024-03-02T14:07:01;4.10;99.90
21580;DHT22;10951;59.656;9.666;2024-03-02T14:09:28;4.10;99.90
21580;DHT22;10951;59.656;9.666;2024-03-02T14:11:56;4.20;99.90
21580;DHT22;10951;59.656;9.666;2024-03-02T14:14:23;4.20;99.90
21580;DHT22;10951;59.656;9.666;2024-03-02T14:16:52;4.20;99.90
21580;DHT22;10951;59.656;9.666;2024-03-02T14:19:19;4.20;99.90
21580;DHT22;10951;59.656;9.666;2024-03-02T14:21:46;4.20;99.90
21580;DHT22;10951;59.656;9.666;2024-03-02T14:24:14;4.20;99.90
21580;DHT22;10951;59.656;9.666;2024-03-02T14:26:41;4.20;99.90
21580;DHT22;10951;59.656;9.666;2024-03-02T14:29:08;4.20;99.90
21580;DHT22;10951;59.656;9.666;2024-03-02T14:31:35;4.10;99.90
21580;DHT22;10951;59.656;9.666;2024-03-02T14:34:02;4.10;99.90
21580;DHT22;10951;59.656;9.666;2024-03-02T14:36:30;4.10;99.90
21580;DHT22;10951;59.656;9.666;2024-03-02T14:38:57;4.10;99.90
21580;DHT22;10951;59.656;9.666;2024-03-02T14:41:24;4.00;99.90
21580;DHT22;10951;59.656;9.666;2024-03-02T14:43:51;4.00;99.90
21580;DHT22;10951;59.656;9.666;2024-03-02T14:46:19;4.00;99.90
21580;DHT22;10951;59.656;9.666;2024-03-02T14:48:46;4.00;99.90
21580;DHT22;10951;59.656;9.666;2024-03-02T14:51:14;4.00;99.90
21580;DHT22;10951;59.656;9.666;2024-03-02T14:53:41;4.00;99.90
21580;DHT22;10951;59.656;9.666;2024-03-02T14:56:08;4.00;99.90
21580;DHT22;10951;59.656;9.666;2024-03-02T14:58:36;4.00;99.90
21580;DHT22;10951;59.656;9.666;2024-03-02T15:01:04;4.00;99.90
21580;DHT22;10951;59.656;9.666;2024-03-02T15:03:35;4.00;99.90
21580;DHT22;10951;59.656;9.666;2024-03-02T15:06:03;4.00;99.90
21580;DHT22;10951;59.656;9.666;2024-03-02T15:08:31;4.00;99.90
21580;DHT22;10951;59.656;9.666;2024-03-02T15:10:58;4.00;99.90
21580;DHT22;10951;59.656;9.666;2024-03-02T15:13:27;4.00;99.90
21580;DHT22;10951;59.656;9.666;2024-03-02T15:15:54;4.00;99.90
21580;DHT22;10951;59.656;9.666;2024-03-02T15:18:21;4.00;99.90
21580;DHT22;10951;59.656;9.666;2024-03-02T15:20:48;4.00;99.90
21580;DHT22;10951;59.656;9.666;2024-03-02T15:23:15;4.00;99.90
21580;DHT22;10951;59.656;9.666;2024-03-02T15:25:42;4.00;99.90
21580;DHT22;10951;59.656;9.666;2024-03-02T15:28:09;4.00;99.90
21580;DHT22;10951;59.656;9.666;2024-03-02T15:30:37;4.00;99.90
21580;DHT22;10951;59.656;9.666;2024-03-02T15:33:04;4.00;99.90
21580;DHT22;10951;59.656;9.666;2024-03-02T15:35:31;4.00;99.90
21580;DHT22;10951;59.656;9.666;2024-03-02T15:37:58;4.00;99.90
21580;DHT22;10951;59.656;9.666;2024-03-02T15:40:26;4.00;99.90
21580;DHT22;10951;59.656;9.666;2024-03-02T15:42:53;4.00;99.90
21580;DHT22;10951;59.656;9.666;2024-03-02T15:45:20;4.00;99.90
21580;DHT22;10951;59.656;9.666;2024-03-02T15:47:47;4.00;99.90
21580;DHT22;10951;59.656;9.666;2024-03-02T15:50:14;4.00;99.90
21580;DHT22;10951;59.656;9.666;2024-03-02T15:52:41;3.90;99.90
21580;DHT22;10951;59.656;9.666;2024-03-02T15:55:09;3.90;99.90
21580;DHT22;10951;59.656;9.666;2024-03-02T15:57:36;3.90;99.90
21580;DHT22;10951;59.656;9.666;2024-03-02T16:00:04;4.00;99.90